Accueil
METAR-TAF:

METAR-TAF

Aéroports :

Buochs, Suisse

latitude: 46-58-28N, longitude: 8-23-49E, altitude: 449 m

Observation

Le bulletin a été fait il y a 19 minutes, à 21:50 UTC
Vent 4 kt de ouest/sud-ouest
Température 7°C
Humidité 100%
Pression 1027 hPa
Visibilité 10 km ou plus
pas de nuages en-dessous de 1500 mètres et pas de cumulonimbus.

METAR: LSZC 302150Z AUTO 24004KT CAVOK 07/07 Q1027

Heure: 23:09 (22:09 UTC)

Prévision

Le bulletin a été fait il y a 7 heures et 44 minutes, à 14:25 UTC
Prévision valable du 30 à 15 UTC au 30 à 24 UTC
Vent 3 kt de direction variable
Visibilité 10 km ou plus
pas de nuages en-dessous de 1500 mètres et pas de cumulonimbus.
Temporairement
du 30 à 15 UTC au 30 à 18 UTC
Visibilité 10 km ou plus
Quelques nuages à une hauteur de 3000 ft

TAF: LSZC 301425Z 3015/3024 VRB03KT CAVOK TEMPO 3015/3018 9999 FEW030

Observations et prévisions météorologiques de plus de 4000 aéroports (messages METAR et TAF).

Les stations disponibles sont représentées par des disques jaunes et rouges sur la carte.

Passer la souris dessus pour voir le nom de la station.

Cliquer dessus pour voir les observations et prévisions météorologiques.

Pour changer de carte: cliquez sur les boutons verts avec une croix noire pour zoomer, sur le bouton vert avec un tiret pour effectuer un zoom arrière, ou sur les flèches vertes pour les cartes adjacentes.


METAR-TAF: